ADDS METAR Data INFO
IDs: Format: Raw Decoded Include TAF

Data at: 1612 UTC 14 Aug 2018

KPSN 141555Z AUTO 21005KT 7SM CLR 28/22 A3004 RMK AO2 T02880228
KPSN 141535Z AUTO 16008G15KT 10SM SCT001 28/23 A3004 RMK AO2 T02860234
KPSN 141515Z AUTO 18008KT 150V210 7SM SCT001 27/23 A3003 RMK AO2 T02730235
KPSN 141455Z AUTO 20007KT 7SM SCT001 26/23 A3003 RMK AO2 T02650235
KPSN 141435Z AUTO 18010KT 7SM SCT001 26/23 A3004 RMK AO2 T02620235
KPSN 141415Z AUTO 19009KT 7SM SCT001 26/23 A3004 RMK AO2 T02600236
KPSN 141355Z AUTO 18008KT 7SM CLR 25/23 A3003 RMK AO2 T02530235
KPSN 141335Z AUTO 18009KT 7SM CLR 25/23 A3003 RMK AO2 T02500233
KPSN 141315Z AUTO 17006KT 7SM CLR 25/23 A3003 RMK AO2 T02470233
KPSN 141255Z AUTO 17007KT 7SM CLR 24/23 A3003 RMK AO2 T02450231
KPSN 141235Z AUTO 16005KT 7SM SCT001 SCT006 23/22 A3002 RMK AO2 T02400230
KPSN 141215Z AUTO 15009KT 7SM SCT001 SCT006 SCT014 23/22 A3002 RMK AO2 T02380230
KPSN 141155Z AUTO 15005KT 5SM BR SCT014 23/22 A3001 RMK AO2 T02360227
KPSN 141135Z AUTO 16004KT 7SM CLR 23/22 A3000 RMK AO2 T02350226
KPSN 141115Z AUTO 15005KT 7SM CLR 23/22 A3000 RMK AO2 T02340225
KPSN 141055Z AUTO 16005KT 7SM CLR 23/22 A2999 RMK AO2 T02330225
KPSN 141035Z AUTO 15004KT 7SM CLR 23/22 A2999 RMK AO2 T02320222
KPSN 141015Z AUTO 15004KT 7SM CLR 23/22 A2999 RMK AO2 T02330222
KPSN 140955Z AUTO 15004KT 7SM CLR 23/22 A2999 RMK AO2 T02350222
KPSN 140935Z AUTO 15004KT 7SM CLR 23/22 A2999 RMK AO2 T02400223
KPSN 140915Z AUTO 16004KT 7SM CLR 24/22 A2999 RMK AO2 T02410223
KPSN 140855Z AUTO 17005KT 7SM CLR 24/22 A2999 RMK AO2 T02450223
KPSN 140835Z AUTO 16005KT 7SM CLR 24/22 A2999 RMK AO2 T02470223
KPSN 140815Z AUTO 16006KT 7SM CLR 25/22 A2999 RMK AO2 T02480223
KPSN 140755Z AUTO 16006KT 10SM CLR 25/22 A2999 RMK AO2 T02500223
KPSN 140735Z AUTO 17007KT 7SM CLR 25/22 A3000 RMK AO2 T02520224
KPSN 140715Z AUTO 16005KT 10SM CLR 25/22 A3000 RMK AO2 T02550225
KPSN 140655Z AUTO 16005KT 10SM CLR 25/22 A3000 RMK AO2 T02550225
KPSN 140635Z AUTO 16005KT 10SM CLR 25/22 A2999 RMK AO2 T02560225
KPSN 140615Z AUTO 15004KT 10SM CLR 25/22 A2999 RMK AO2 T02570225
KPSN 140555Z AUTO 15004KT 10SM CLR 26/22 A2998 RMK AO2 T02580226
KPSN 140535Z AUTO 15006KT 10SM CLR 26/22 A2998 RMK AO2 T02610226
KPSN 140515Z AUTO 16006KT 10SM CLR 26/22 A2998 RMK AO2 T02620226
KPSN 140455Z AUTO 15004KT 10SM CLR 26/22 A2998 RMK AO2 T02650226
KPSN 140435Z AUTO 15005KT 10SM CLR 26/22 A2998 RMK AO2 T02690226
KPSN 140415Z AUTO 16006KT 10SM CLR 27/22 A2998 RMK AO2 T02730226
KPSN 140355Z AUTO 15006KT 10SM CLR 27/22 A2998 RMK AO2 T02760225
KPSN 140335Z AUTO 15008KT 10SM CLR 27/22 A2997 RMK AO2 T02800224
KPSN 140315Z AUTO 15008KT 10SM CLR 28/22 A2998 RMK AO2 T02810222
KPSN 140255Z AUTO 14007KT 10SM CLR 27/22 A2997 RMK AO2 T02800220
KPSN 140235Z AUTO 14007KT 10SM CLR 28/21 A2997 RMK AO2 T02820217
KPSN 140215Z AUTO 13006KT 10SM CLR 28/21 A2997 RMK AO2 T02810214
KPSN 140155Z AUTO 13005KT 10SM CLR 28/21 A2996 RMK AO2 T02840210
KPSN 140135Z AUTO 13006KT 10SM CLR 28/20 A2996 RMK AO2 T02870205
KPSN 140115Z AUTO 14004KT 10SM CLR 29/20 A2996 RMK AO2 T02910201
KPSN 140055Z AUTO 13006KT 10SM CLR 30/20 A2995 RMK AO2 T02990200
KPSN 140035Z AUTO 15008KT 10SM CLR 30/20 A2995 RMK AO2 T03050201
KPSN 140015Z AUTO 13008G20KT 10SM CLR 31/20 A2995 RMK AO2 T03100205
KPSN 132355Z AUTO 15008KT 7SM CLR 32/21 A2994 RMK AO2 T03200215
KPSN 132335Z AUTO 14008KT 7SM CLR 32/20 A2995 RMK AO2 T03290202
KPSN 132315Z AUTO 15005KT 7SM CLR 32/21 A2995 RMK AO2 T03260216
KPSN 132255Z AUTO 14004KT 7SM CLR 32/21 A2995 RMK AO2 T03300214
KPSN 132235Z AUTO 15008G14KT 7SM CLR 33/21 A2996 RMK AO2 T03340214
KPSN 132215Z AUTO 15008KT 7SM CLR 33/21 A2997 RMK AO2 T03330211
KPSN 132155Z AUTO 17007KT 7SM CLR 33/20 A2997 RMK AO2 T03350203
KPSN 132135Z AUTO 15008G17KT 7SM CLR 33/19 A2997 RMK AO2 T03360196
KPSN 132115Z AUTO 17009G16KT 7SM CLR 33/20 A2998 RMK AO2 T03360198
KPSN 132055Z AUTO 13007G15KT 7SM CLR 33/21 A2998 RMK AO2 T03370210
KPSN 132035Z AUTO 14010KT 7SM CLR 33/21 A2998 RMK AO2 T03390210
KPSN 132015Z AUTO 13008KT 7SM CLR 33/21 A2999 RMK AO2 T03320219
KPSN 131955Z AUTO 15010G15KT 7SM CLR 32/21 A3000 RMK AO2 T03290219
KPSN 131935Z AUTO 16008G14KT 7SM CLR 32/22 A3001 RMK AO2 T03270220
KPSN 131915Z AUTO 17007G15KT 7SM CLR 32/21 A3002 RMK AO2 T03190218
KPSN 131855Z AUTO 14008G18KT 7SM CLR 31/22 A3002 RMK AO2 T03190220
KPSN 131835Z AUTO 16009G15KT 7SM CLR 31/22 A3003 RMK AO2 T03160228
KPSN 131815Z AUTO 17007G14KT 7SM CLR 31/23 A3004 RMK AO2 T03140236
KPSN 131755Z AUTO 18010G16KT 7SM CLR 31/23 A3005 RMK AO2 T03130233
KPSN 131735Z AUTO 14007KT 7SM CLR 30/23 A3006 RMK AO2 T03050235
KPSN 131715Z AUTO 17007KT 7SM CLR 30/23 A3007 RMK AO2 T03030238
KPSN 131655Z AUTO 17006KT 7SM SCT001 30/24 A3008 RMK AO2 T02980243
KPSN 131635Z AUTO 16008G14KT 7SM CLR 28/24 A3008 RMK AO2 T02900242
KPSN 131615Z AUTO 15007KT 7SM SCT001 SCT011 28/25 A3008 RMK AO2 T02820247
KPSN 131555Z AUTO 16007KT 7SM SCT001 SCT011 27/24 A3008 RMK AO2 T02750246
KPSN 131535Z AUTO 17005KT 7SM SCT001 SCT009 SCT013 27/25 A3008 RMK AO2 T02700248
KPSN 131515Z AUTO 15005KT 5SM BR SCT001 SCT011 26/24 A3008 RMK AO2 T02650247
KPSN 131455Z AUTO 15005KT 5SM BR SCT001 26/25 A3008 RMK AO2 T02620247
KPSN 131435Z AUTO 17005KT 5SM BR CLR 26/25 A3008 RMK AO2 T02600248
KPSN 131415Z AUTO 16004KT 5SM BR CLR 25/24 A3008 RMK AO2 T02530245
KPSN 131355Z AUTO 14005KT 5SM BR SCT002 25/24 A3008 RMK AO2 T02500245
KPSN 131335Z AUTO 13004KT 5SM BR SCT002 24/24 A3008 RMK AO2 T02440244
KPSN 131315Z AUTO 13004KT 5SM BR SCT002 23/23 A3007 RMK AO2 T02380238
KPSN 131255Z AUTO 13005KT 4SM BR SCT002 23/23 A3007 RMK AO2 T02350235
KPSN 131235Z AUTO 11004KT 4SM BR SCT002 23/23 A3007 RMK AO2 T02330233
KPSN 131215Z AUTO 12005KT 4SM BR SCT002 23/23 A3007 RMK AO2 T02310231
KPSN 131155Z AUTO 12003KT 4SM BR SCT004 22/22 A3007 RMK AO2 T02300230
KPSN 131135Z AUTO 12005KT 5SM BR SCT004 22/22 A3006 RMK AO2 T02300230
KPSN 131115Z AUTO 12004KT 5SM BR SCT004 22/22 A3006 RMK AO2 T02300230
KPSN 131055Z AUTO 12005KT 5SM BR SCT004 22/22 A3007 RMK AO2 T02280228
KPSN 131035Z AUTO 11004KT 5SM BR SCT004 22/22 A3006 RMK AO2 T02260226
KPSN 131015Z AUTO 11003KT 5SM BR CLR 22/22 A3006 RMK AO2 T02250225
KPSN 130955Z AUTO 13003KT 5SM BR CLR 22/22 A3006 RMK AO2 T02250225
KPSN 130935Z AUTO 14003KT 7SM CLR 22/22 A3007 RMK AO2 T02240224
KPSN 130915Z AUTO 13003KT 7SM CLR 22/22 A3007 RMK AO2 T02210221
KPSN 130855Z AUTO 13004KT 7SM CLR 22/22 A3006 RMK AO2 T02210220
KPSN 130835Z AUTO 11004KT 7SM CLR 22/21 A3006 RMK AO2 T02200216
KPSN 130815Z AUTO 12004KT 7SM CLR 22/21 A3006 RMK AO2 T02200214
KPSN 130755Z AUTO 13004KT 10SM CLR 22/21 A3007 RMK AO2 T02200212
KPSN 130735Z AUTO 12005KT 10SM CLR 21/21 A3007 RMK AO2 T02190211
KPSN 130715Z AUTO 12004KT 10SM CLR 21/21 A3007 RMK AO2 T02180210
KPSN 130655Z AUTO 12004KT 10SM CLR 21/21 A3008 RMK AO2 T02180210
KPSN 130635Z AUTO 11004KT 10SM CLR 22/21 A3008 RMK AO2 T02200210
KPSN 130615Z AUTO 11005KT 10SM CLR 22/21 A3007 RMK AO2 T02210210
KPSN 130555Z AUTO 10005KT 10SM CLR 22/21 A3008 RMK AO2 T02210208
KPSN 130535Z AUTO 09004KT 10SM CLR 22/21 A3007 RMK AO2 T02210210
KPSN 130515Z AUTO 10004KT 10SM CLR 22/21 A3007 RMK AO2 T02210212
KPSN 130455Z AUTO 10004KT 10SM CLR 22/21 A3007 RMK AO2 T02220215
KPSN 130435Z AUTO 09005KT 10SM CLR 22/21 A3007 RMK AO2 T02220216
KPSN 130415Z AUTO 09004KT 10SM CLR 22/21 A3008 RMK AO2 T02230218